Time;durP1;ratioP1;P1;durP2;ratioP2;P2;SDS_P1;SDS_P2;PMS_P1;PMS_P2;Temp;Humidity;BMP_temperature;BMP_pressure;BME280_temperature;BME280_humidity;BME280_pressure;Samples;Min_cycle;Max_cycle;Signal;HPM_P1;HPM_P2
2024/01/22 00:02:22;;;;;;;15.60;6.37;;;;;;;1.71;100.00;101209.77;4784387;58;1138781;-78
2024/01/22 00:07:28;;;;;;;12.80;5.67;;;;;;;1.75;100.00;101200.96;4765789;59;1138815;-75
2024/01/22 00:12:33;;;;;;;14.17;7.10;;;;;;;1.79;100.00;101186.53;4924836;58;1139006;-76
2024/01/22 00:17:39;;;;;;;11.97;5.93;;;;;;;1.85;100.00;101186.33;4863859;58;1138564;-78
2024/01/22 00:22:45;;;;;;;14.50;5.63;;;;;;;1.88;100.00;101185.78;4926278;57;1138500;-76
2024/01/22 00:27:50;;;;;;;17.93;7.50;;;;;;;1.90;100.00;101161.81;4872887;58;1138510;-74
2024/01/22 00:32:56;;;;;;;19.90;6.40;;;;;;;1.95;100.00;101145.58;4848098;59;1139347;-76
2024/01/22 00:38:02;;;;;;;12.47;4.72;;;;;;;1.98;100.00;101129.83;4921988;56;1138928;-76
2024/01/22 00:43:07;;;;;;;13.08;5.53;;;;;;;2.01;100.00;101147.97;4988028;57;1139254;-75
2024/01/22 00:48:13;;;;;;;12.33;4.80;;;;;;;2.05;100.00;101147.42;4962193;58;1138985;-76
2024/01/22 00:53:18;;;;;;;19.40;7.83;;;;;;;2.07;100.00;101154.31;4943796;58;1138693;-76
2024/01/22 00:58:24;;;;;;;25.60;8.13;;;;;;;2.10;100.00;101158.13;4959239;57;1138841;-77
2024/01/22 01:03:30;;;;;;;15.50;7.53;;;;;;;2.09;100.00;101156.87;4958320;58;1138577;-77
2024/01/22 01:08:35;;;;;;;14.43;6.93;;;;;;;2.10;100.00;101142.92;4939962;58;1139171;-75
2024/01/22 01:13:42;;;;;;;15.43;5.67;;;;;;;2.10;100.00;101133.34;4898095;58;1138574;-74
2024/01/22 01:18:48;;;;;;;18.00;7.83;;;;;;;2.09;100.00;101127.72;4880290;59;1138765;-78
2024/01/22 01:23:54;;;;;;;15.16;6.46;;;;;;;2.11;100.00;101114.63;4869350;57;1139016;-79
2024/01/22 01:29:00;;;;;;;13.03;6.20;;;;;;;2.10;100.00;101085.07;4858756;59;1138780;-78
2024/01/22 01:34:06;;;;;;;17.87;7.47;;;;;;;2.10;100.00;101075.94;4875622;58;1139173;-75
2024/01/22 01:39:14;;;;;;;16.20;6.53;;;;;;;2.11;100.00;101081.56;4967830;57;1138955;-77
2024/01/22 01:44:20;;;;;;;15.47;6.97;;;;;;;2.13;100.00;101071.08;4969084;57;1139227;-77
2024/01/22 01:49:25;;;;;;;13.90;7.03;;;;;;;2.11;100.00;101061.14;4969471;57;1138884;-78
2024/01/22 01:54:31;;;;;;;15.80;7.60;;;;;;;2.06;100.00;101052.16;4916372;58;1139115;-77
2024/01/22 01:59:43;;;;;;;17.77;7.53;;;;;;;1.88;100.00;101035.81;4810531;57;1140387;-78
2024/01/22 02:04:49;;;;;;;19.23;7.03;;;;;;;1.88;100.00;101035.81;4800028;58;1138623;-76
2024/01/22 02:09:55;;;;;;;18.07;8.07;;;;;;;1.83;100.00;101035.14;4917082;58;1138852;-77
2024/01/22 02:15:01;;;;;;;13.17;7.83;;;;;;;1.74;100.00;101039.33;4879174;58;1148297;-78
2024/01/22 02:20:07;;;;;;;15.90;6.84;;;;;;;1.69;100.00;101010.80;4954061;56;1138831;-78
2024/01/22 02:25:13;;;;;;;19.92;7.87;;;;;;;1.60;100.00;101020.23;4983763;56;1138389;-75
2024/01/22 02:30:19;;;;;;;22.87;7.67;;;;;;;1.58;100.00;100998.58;4997830;56;1138454;-77
2024/01/22 02:35:25;;;;;;;17.42;6.75;;;;;;;1.56;100.00;100985.19;4974581;56;1138735;-79
2024/01/22 02:40:30;;;;;;;17.07;7.40;;;;;;;1.55;100.00;100981.72;5016067;56;1138883;-79
2024/01/22 02:45:36;;;;;;;18.00;7.30;;;;;;;1.55;100.00;100973.05;4949870;58;1138916;-77
2024/01/22 02:50:41;;;;;;;17.67;7.77;;;;;;;1.60;100.00;100973.77;4927410;58;1139133;-75
2024/01/22 02:55:47;;;;;;;16.67;6.60;;;;;;;1.61;100.00;100972.86;4873925;58;1138807;-79
2024/01/22 03:00:52;;;;;;;13.17;5.03;;;;;;;1.64;100.00;100955.82;4937537;57;1139963;-76
2024/01/22 03:05:58;;;;;;;10.67;5.70;;;;;;;1.68;100.00;100942.61;4786620;59;1138529;-77
2024/01/22 03:11:04;;;;;;;14.25;6.25;;;;;;;1.75;100.00;100935.44;4945097;58;1138575;-78
2024/01/22 03:16:09;;;;;;;18.80;8.30;;;;;;;1.85;100.00;100925.52;4902460;57;1139039;-76
2024/01/22 03:21:16;;;;;;;16.40;5.67;;;;;;;1.93;100.00;100913.08;4946861;58;1138496;-78
2024/01/22 03:26:25;;;;;;;11.20;5.23;;;;;;;2.01;100.00;100901.91;4933520;57;1139179;-76
2024/01/22 03:31:32;;;;;;;11.53;5.43;;;;;;;2.03;100.00;100903.55;4928429;58;1138393;-79
2024/01/22 03:36:38;;;;;;;12.27;5.23;;;;;;;2.16;100.00;100885.69;4979886;57;1138822;-78
2024/01/22 03:41:43;;;;;;;12.70;5.60;;;;;;;2.18;100.00;100868.22;4981386;57;1138638;-78
2024/01/22 03:46:49;;;;;;;11.33;4.95;;;;;;;2.26;100.00;100860.97;4882105;57;1138706;-76
2024/01/22 03:51:54;;;;;;;8.50;4.37;;;;;;;2.33;100.00;100855.89;4889880;58;1139231;-77
2024/01/22 03:57:07;;;;;;;12.80;6.00;;;;;;;2.39;100.00;100858.73;4955102;58;1136580;-77
2024/01/22 04:02:07;;;;;;;11.15;3.98;;;;;;;2.40;100.00;100869.12;4900577;57;1138786;-78
2024/01/22 04:07:13;;;;;;;7.43;4.03;;;;;;;2.50;100.00;100834.81;4899366;59;1139336;-78
2024/01/22 04:12:19;;;;;;;10.27;4.80;;;;;;;2.56;100.00;100818.47;4876179;58;1136655;-73
2024/01/22 04:17:24;;;;;;;7.53;3.33;;;;;;;2.63;100.00;100806.00;4872852;58;1138663;-76
2024/01/22 04:22:30;;;;;;;7.97;4.20;;;;;;;2.69;100.00;100814.91;4962665;57;1136406;-74
2024/01/22 04:27:36;;;;;;;11.68;5.15;;;;;;;2.71;100.00;100796.11;4990318;57;1136760;-75
2024/01/22 04:32:42;;;;;;;10.80;4.60;;;;;;;2.71;100.00;100790.89;4992710;56;1138891;-75
2024/01/22 04:37:48;;;;;;;13.50;5.60;;;;;;;2.69;100.00;100783.57;5002362;56;1138895;-76
2024/01/22 04:42:53;;;;;;;9.83;5.23;;;;;;;2.59;100.00;100756.15;4997666;57;1138683;-74
2024/01/22 04:47:59;;;;;;;8.17;4.60;;;;;;;2.55;100.00;100749.34;4945380;58;1136958;-75
2024/01/22 04:53:05;;;;;;;13.63;3.83;;;;;;;2.50;100.00;100752.59;4947658;58;1137017;-76
2024/01/22 04:58:10;;;;;;;11.97;5.00;;;;;;;2.45;100.00;100728.81;4915563;57;1138943;-73
2024/01/22 05:03:16;;;;;;;9.53;4.47;;;;;;;2.50;100.00;100716.04;4863195;59;1139707;-75
2024/01/22 05:08:22;;;;;;;7.23;4.30;;;;;;;2.50;100.00;100717.34;4879493;58;1136555;-76
2024/01/22 05:13:27;;;;;;;11.55;5.10;;;;;;;2.53;100.00;100709.39;4884113;58;1136683;-73
2024/01/22 05:18:33;;;;;;;7.70;3.70;;;;;;;2.53;100.00;100701.11;4865275;58;1139259;-74
2024/01/22 05:23:40;;;;;;;7.35;3.67;;;;;;;2.52;100.00;100713.77;4968445;57;1136803;-73
2024/01/22 05:28:45;;;;;;;5.57;3.97;;;;;;;2.56;100.00;100723.62;4989019;56;1136642;-74
2024/01/22 05:33:51;;;;;;;7.27;3.83;;;;;;;2.56;100.00;100708.81;5004808;56;1136577;-74
2024/01/22 05:38:56;;;;;;;11.07;4.33;;;;;;;2.59;100.00;100719.14;5000230;56;1136482;-76
2024/01/22 05:44:02;;;;;;;21.40;9.00;;;;;;;2.63;100.00;100699.80;4958766;57;1138752;-76
2024/01/22 05:49:08;;;;;;;12.30;6.90;;;;;;;2.66;100.00;100704.89;4978373;58;1138869;-75
2024/01/22 05:54:14;;;;;;;28.47;12.00;;;;;;;2.67;100.00;100689.62;4912711;57;1138858;-77
2024/01/22 05:59:20;;;;;;;10.95;3.70;;;;;;;2.77;100.00;100697.91;4870578;58;1141188;-74
2024/01/22 06:04:26;;;;;;;8.93;4.53;;;;;;;2.85;100.00;100685.38;4740444;59;1138844;-75
2024/01/22 06:09:31;;;;;;;19.70;9.53;;;;;;;2.94;100.00;100684.13;4893630;58;1136829;-75
2024/01/22 06:14:37;;;;;;;6.07;3.07;;;;;;;2.99;100.00;100656.89;4942713;57;1138803;-73
2024/01/22 06:19:43;;;;;;;8.63;3.83;;;;;;;3.09;100.00;100663.39;4955221;57;1136653;-75
2024/01/22 06:24:49;;;;;;;6.07;3.33;;;;;;;3.21;100.00;100644.19;4887758;58;1136676;-73
2024/01/22 06:29:57;;;;;;;7.87;3.53;;;;;;;3.31;100.00;100638.46;4871110;58;1136623;-72
2024/01/22 06:35:02;;;;;;;12.27;6.20;;;;;;;3.42;100.00;100600.05;4871654;58;1136653;-77
2024/01/22 06:40:08;;;;;;;6.83;4.35;;;;;;;3.45;100.00;100612.53;4943780;58;1138955;-76
2024/01/22 06:45:14;;;;;;;11.38;5.72;;;;;;;3.44;100.00;100595.60;4954469;58;1136447;-76
2024/01/22 06:50:20;;;;;;;9.07;4.93;;;;;;;3.36;100.00;100589.90;4909166;57;1138787;-74
2024/01/22 06:55:26;;;;;;;5.47;3.20;;;;;;;3.32;100.00;100568.73;4886562;59;1136893;-74
2024/01/22 07:00:33;;;;;;;6.70;3.40;;;;;;;3.32;100.00;100561.74;4879120;58;1136551;-75
2024/01/22 07:05:38;;;;;;;5.83;3.85;;;;;;;3.35;100.00;100523.70;4922798;56;1136610;-74
2024/01/22 07:10:44;;;;;;;7.00;3.83;;;;;;;3.32;100.00;100528.22;4958310;57;1136841;-74
2024/01/22 07:15:49;;;;;;;5.70;4.10;;;;;;;3.35;100.00;100532.84;4940621;56;1136621;-75
2024/01/22 07:20:55;;;;;;;6.30;4.03;;;;;;;3.39;100.00;100520.00;4880359;57;1136717;-74
2024/01/22 07:26:01;;;;;;;8.60;5.13;;;;;;;3.54;100.00;100515.79;4896888;57;1137414;-75
2024/01/22 07:31:06;;;;;;;16.40;5.87;;;;;;;3.69;100.00;100505.04;4962784;56;1136820;-75
2024/01/22 07:36:13;;;;;;;9.77;5.70;;;;;;;3.72;100.00;100476.12;4877186;58;1140292;-77
2024/01/22 07:41:19;;;;;;;12.33;5.28;;;;;;;3.69;100.00;100466.66;4781344;58;1136696;-76
2024/01/22 07:46:24;;;;;;;11.15;5.22;;;;;;;3.64;100.00;100445.60;4938347;57;1138800;-77
2024/01/22 07:51:30;;;;;;;15.47;6.57;;;;;;;3.60;100.00;100437.52;4887620;57;1138942;-77
2024/01/22 07:56:35;;;;;;;8.30;4.57;;;;;;;3.57;100.00;100420.67;4933455;56;1138860;-79
2024/01/22 08:01:41;;;;;;;9.43;5.07;;;;;;;3.54;100.00;100423.81;4922993;58;1136712;-77
2024/01/22 08:06:46;;;;;;;5.67;3.60;;;;;;;3.60;100.00;100419.21;4923095;57;1136741;-72
2024/01/22 08:11:52;;;;;;;12.47;5.15;;;;;;;3.66;100.00;100424.99;4944154;57;1136747;-71
2024/01/22 08:16:58;;;;;;;8.83;3.83;;;;;;;3.75;100.00;100417.97;4968742;57;1138792;-72
2024/01/22 08:22:04;;;;;;;8.30;4.53;;;;;;;3.82;100.00;100406.25;4911614;57;1136632;-72
2024/01/22 08:27:10;;;;;;;4.90;3.02;;;;;;;3.92;100.00;100414.49;4921401;57;1136567;-73
2024/01/22 08:32:15;;;;;;;12.90;5.17;;;;;;;4.02;100.00;100406.53;4951622;57;1136900;-71
2024/01/22 08:37:22;;;;;;;9.93;4.50;;;;;;;4.13;100.00;100392.87;4925754;57;1138848;-74
2024/01/22 08:42:27;;;;;;;9.20;4.23;;;;;;;4.19;100.00;100399.11;4891161;57;1136849;-70
2024/01/22 08:47:33;;;;;;;8.87;4.00;;;;;;;4.26;100.00;100391.32;4805745;58;1136857;-72
2024/01/22 08:52:40;;;;;;;7.57;3.57;;;;;;;4.31;100.00;100395.83;4793735;59;1136584;-75
2024/01/22 08:57:46;;;;;;;11.70;4.65;;;;;;;4.37;100.00;100385.03;4840664;58;1136468;-73
2024/01/22 09:02:52;;;;;;;10.50;4.17;;;;;;;4.46;100.00;100362.27;4893390;58;1138775;-75
2024/01/22 09:07:58;;;;;;;9.10;4.20;;;;;;;4.51;100.00;100365.95;4911733;57;1138780;-70
2024/01/22 09:13:03;;;;;;;34.30;15.57;;;;;;;4.57;100.00;100376.10;4906880;57;1136703;-71
2024/01/22 09:18:09;;;;;;;107.52;33.90;;;;;;;4.59;100.00;100363.73;4860150;58;1140687;-71
2024/01/22 09:23:15;;;;;;;168.57;55.27;;;;;;;4.63;100.00;100340.84;4994535;56;1142926;-72
2024/01/22 09:28:21;;;;;;;110.37;38.10;;;;;;;4.66;100.00;100352.00;4903778;57;1143155;-74
2024/01/22 09:33:27;;;;;;;56.67;16.57;;;;;;;4.69;100.00;100343.98;4816132;58;1143116;-71
2024/01/22 09:38:33;;;;;;;50.10;14.90;;;;;;;4.69;100.00;100320.88;4839965;58;1140795;-72
2024/01/22 09:43:41;;;;;;;59.27;17.70;;;;;;;4.64;100.00;100314.58;4795927;58;1140944;-71
2024/01/22 09:48:50;;;;;;;36.73;11.17;;;;;;;4.60;100.00;100316.52;4943981;56;1140736;-70
2024/01/22 09:54:01;;;;;;;46.57;16.00;;;;;;;4.58;100.00;100320.98;4933944;57;1140738;-71
2024/01/22 09:59:19;;;;;;;57.33;18.17;;;;;;;4.57;100.00;100311.47;4914762;57;1140894;-71
2024/01/22 10:04:26;;;;;;;35.60;12.57;;;;;;;4.57;100.00;100308.85;4884894;58;1141061;-74
2024/01/22 10:09:32;;;;;;;45.33;14.13;;;;;;;4.56;100.00;100299.30;4969575;56;1140848;-70
2024/01/22 10:14:45;;;;;;;119.63;30.37;;;;;;;4.58;100.00;100295.30;4989502;56;1141666;-74
2024/01/22 10:19:49;;;;;;;62.33;21.10;;;;;;;4.62;100.00;100275.83;4892190;57;1142994;-76
2024/01/22 10:25:03;;;;;;;19.60;7.67;;;;;;;4.62;100.00;100254.03;4971575;56;1141047;-77
2024/01/22 10:30:14;;;;;;;29.70;10.85;;;;;;;4.61;100.00;100245.33;5009898;58;1138947;-77
2024/01/22 10:35:32;;;;;;;38.45;13.00;;;;;;;4.63;100.00;100238.23;4897340;57;1140767;-77
2024/01/22 10:40:32;;;;;;;18.43;8.50;;;;;;;4.65;100.00;100238.15;4896234;58;1140703;-77
2024/01/22 10:45:37;;;;;;;21.80;7.87;;;;;;;4.68;100.00;100241.44;4902225;58;1138804;-77
2024/01/22 10:50:44;;;;;;;33.33;10.70;;;;;;;4.70;100.00;100216.00;4890845;58;1138965;-76
2024/01/22 10:56:00;;;;;;;13.97;5.97;;;;;;;4.75;100.00;100228.34;4911331;57;1141176;-74
2024/01/22 11:01:10;;;;;;;10.23;4.30;;;;;;;4.77;100.00;100218.62;4903092;58;1138799;-75
2024/01/22 11:06:27;;;;;;;15.93;5.37;;;;;;;4.80;100.00;100212.37;4930265;57;1138969;-75
2024/01/22 11:11:34;;;;;;;10.67;5.53;;;;;;;4.79;100.00;100208.06;5001690;56;1138672;-74
2024/01/22 11:16:40;;;;;;;80.10;36.40;;;;;;;4.76;100.00;100218.25;4939670;56;1138873;-73
2024/01/22 11:21:45;;;;;;;20.70;8.70;;;;;;;4.59;100.00;100203.98;4893985;57;1141941;-76
2024/01/22 11:26:59;;;;;;;24.03;12.40;;;;;;;4.43;100.00;100211.05;4941231;57;1138736;-76
2024/01/22 11:32:26;;;;;;;;;;;;;;;4.31;100.00;100202.56;4887691;57;1140576;-79
2024/01/22 11:37:40;;;;;;;92.60;28.10;;;;;;;4.22;100.00;100186.47;4926917;57;973735;-72
2024/01/22 11:42:47;;;;;;;200.47;53.13;;;;;;;4.14;100.00;100172.11;4978081;58;1138827;-76
2024/01/22 11:47:52;;;;;;;117.43;30.03;;;;;;;4.09;100.00;100156.69;4996122;57;1143301;-75
2024/01/22 11:53:01;;;;;;;73.07;19.47;;;;;;;4.06;100.00;100169.94;4890080;57;1143496;-75
2024/01/22 11:58:11;;;;;;;19.73;7.67;;;;;;;4.08;100.00;100151.08;4899579;57;1140795;-72
2024/01/22 12:03:18;;;;;;;31.40;12.23;;;;;;;4.11;100.00;100156.14;4903666;58;1138568;-78
2024/01/22 12:08:24;;;;;;;48.00;12.53;;;;;;;4.17;100.00;100136.61;4937347;57;1140684;-78
2024/01/22 12:13:30;;;;;;;27.93;10.45;;;;;;;4.22;100.00;100133.27;4934008;56;1140840;-78
2024/01/22 12:18:35;;;;;;;11.17;4.43;;;;;;;4.32;100.00;100117.87;4924170;57;1140955;-78
2024/01/22 12:23:42;;;;;;;22.43;6.33;;;;;;;4.39;100.00;100132.30;4926335;57;1138872;-81
2024/01/22 12:28:52;;;;;;;9.77;4.17;;;;;;;4.52;100.00;100095.30;4931930;57;1139622;-79
2024/01/22 12:34:11;;;;;;;13.05;4.30;;;;;;;4.64;100.00;100114.66;4962406;57;1137031;-73
2024/01/22 12:39:21;;;;;;;10.77;5.17;;;;;;;4.70;100.00;100082.41;4913314;58;1138900;-75
2024/01/22 12:44:27;;;;;;;18.10;8.63;;;;;;;4.70;100.00;100060.61;4915763;57;1138888;-76
2024/01/22 12:49:32;;;;;;;6.90;4.20;;;;;;;4.64;100.00;100059.66;4917314;57;1138967;-77
2024/01/22 12:54:38;;;;;;;19.83;7.07;;;;;;;4.60;100.00;100060.31;4937409;57;1136418;-75
2024/01/22 12:59:49;;;;;;;16.33;6.97;;;;;;;4.60;100.00;100041.98;4867977;58;1138426;-76
2024/01/22 13:04:55;;;;;;;9.93;3.97;;;;;;;4.64;100.00;100037.40;4938257;57;1138744;-83
2024/01/22 13:10:00;;;;;;;17.37;4.95;;;;;;;4.65;100.00;100035.16;4932368;56;1136823;-81
2024/01/22 13:15:08;;;;;;;21.10;6.67;;;;;;;4.60;100.00;100028.41;4983298;56;1138763;-80
2024/01/22 13:20:14;;;;;;;14.50;5.80;;;;;;;4.60;100.00;100017.94;4938546;58;1138848;-77
2024/01/22 13:25:20;;;;;;;10.03;3.73;;;;;;;4.58;100.00;100013.75;4983284;57;1138666;-78
2024/01/22 13:30:26;;;;;;;15.43;6.87;;;;;;;4.53;100.00;100004.02;5011865;58;1139002;-76
2024/01/22 13:35:32;;;;;;;9.57;5.50;;;;;;;4.48;100.00;100005.59;4959536;58;1148070;-72
2024/01/22 13:40:38;;;;;;;22.90;10.38;;;;;;;4.45;100.00;100018.87;4914447;58;1136811;-72
2024/01/22 13:45:43;;;;;;;30.23;10.88;;;;;;;4.43;100.00;99998.48;4909340;57;1140755;-71
2024/01/22 13:50:50;;;;;;;33.20;12.43;;;;;;;4.42;100.00;99994.20;4821357;59;1138652;-72
2024/01/22 13:55:56;;;;;;;13.90;6.37;;;;;;;4.42;100.00;99985.50;4897993;58;1139012;-72
2024/01/22 14:01:02;;;;;;;11.63;5.33;;;;;;;4.43;100.00;99976.72;4907222;57;1136958;-73
2024/01/22 14:06:08;;;;;;;12.77;5.63;;;;;;;4.42;100.00;99970.64;4879141;57;1136632;-71
2024/01/22 14:11:13;;;;;;;10.07;5.00;;;;;;;4.46;100.00;99977.81;4905594;57;1136652;-72
2024/01/22 14:16:20;;;;;;;9.60;5.57;;;;;;;4.53;100.00;99971.28;4933386;57;1136813;-75
2024/01/22 14:21:27;;;;;;;10.43;5.67;;;;;;;4.56;100.00;99965.39;4864734;58;1134778;-76
2024/01/22 14:26:35;;;;;;;16.27;7.67;;;;;;;4.58;100.00;99970.05;4779522;57;1137060;-75
2024/01/22 14:31:40;;;;;;;19.48;8.40;;;;;;;4.59;100.00;99957.33;4755277;58;1136862;-78
2024/01/22 14:36:46;;;;;;;53.53;20.30;;;;;;;4.62;100.00;99972.02;4773836;58;1136853;-76
2024/01/22 14:41:51;;;;;;;39.55;15.23;;;;;;;4.65;100.00;99949.57;4751746;59;1138721;-79
2024/01/22 14:46:57;;;;;;;60.47;27.23;;;;;;;4.68;100.00;99956.40;4744267;59;1138418;-78
2024/01/22 14:52:02;;;;;;;32.97;14.53;;;;;;;4.72;100.00;99945.64;4777030;59;1138630;-77
2024/01/22 14:57:09;;;;;;;34.50;15.17;;;;;;;4.77;100.00;99935.70;4903633;57;1138571;-76
2024/01/22 15:02:14;;;;;;;46.02;19.30;;;;;;;4.83;100.00;99935.32;4952657;58;1138581;-77
2024/01/22 15:07:20;;;;;;;28.43;10.73;;;;;;;4.87;100.00;99937.29;4930064;58;1138842;-76
2024/01/22 15:12:26;;;;;;;17.70;7.87;;;;;;;4.93;100.00;99938.19;5019713;56;1138469;-76
2024/01/22 15:17:33;;;;;;;13.98;6.95;;;;;;;4.94;100.00;99934.16;4944235;57;1137039;-76
2024/01/22 15:22:41;;;;;;;28.33;12.73;;;;;;;5.01;100.00;99942.48;4940642;57;1145944;-74
2024/01/22 15:27:47;;;;;;;15.13;8.00;;;;;;;5.07;100.00;99938.61;4942733;56;1138524;-76
2024/01/22 15:32:53;;;;;;;20.03;11.97;;;;;;;5.16;100.00;99931.02;4924831;57;1136325;-76
2024/01/22 15:37:59;;;;;;;15.87;9.10;;;;;;;5.22;100.00;99929.77;4879131;58;1138820;-75
2024/01/22 15:43:05;;;;;;;11.87;5.50;;;;;;;5.32;100.00;99922.16;4959497;58;1136800;-75
2024/01/22 15:48:10;;;;;;;12.03;5.20;;;;;;;5.34;100.00;99924.22;4951136;58;1136864;-73
2024/01/22 15:53:16;;;;;;;16.07;6.50;;;;;;;5.36;100.00;99913.97;4982154;58;1136464;-73
2024/01/22 15:58:21;;;;;;;68.57;34.07;;;;;;;5.39;100.00;99917.70;4949902;58;1136628;-74
2024/01/22 16:03:27;;;;;;;34.23;14.40;;;;;;;5.42;100.00;99935.88;4949215;58;1139351;-75
2024/01/22 16:08:33;;;;;;;44.45;16.82;;;;;;;5.52;100.00;99908.55;4992688;58;1138675;-72
2024/01/22 16:13:38;;;;;;;77.10;23.90;;;;;;;5.59;100.00;99917.71;4929005;57;1138804;-77
2024/01/22 16:18:45;;;;;;;79.32;26.37;;;;;;;5.65;100.00;99916.81;4898629;58;1139126;-78
2024/01/22 16:23:50;;;;;;;58.74;18.22;;;;;;;5.71;100.00;99906.39;4874939;59;1138837;-76
2024/01/22 16:28:56;;;;;;;39.47;13.10;;;;;;;5.79;100.00;99899.33;4877502;58;1139386;-78
2024/01/22 16:34:02;;;;;;;16.47;7.27;;;;;;;5.86;100.00;99899.27;4921125;58;1138671;-75
2024/01/22 16:39:09;;;;;;;32.42;9.30;;;;;;;5.94;100.00;99893.91;4847122;59;1136892;-76
2024/01/22 16:44:15;;;;;;;18.73;6.37;;;;;;;5.97;100.00;99908.11;4865761;59;1136507;-78
2024/01/22 16:49:20;;;;;;;18.73;7.67;;;;;;;6.00;100.00;99903.97;4872944;58;1136834;-75
2024/01/22 16:54:26;;;;;;;20.97;8.17;;;;;;;6.05;100.00;99908.91;4899821;58;1136803;-74
2024/01/22 16:59:32;;;;;;;18.80;7.67;;;;;;;6.06;100.00;99897.95;4891415;58;1136889;-78
2024/01/22 17:04:37;;;;;;;17.53;6.47;;;;;;;6.07;100.00;99897.00;4926650;57;1136490;-75
2024/01/22 17:09:44;;;;;;;19.70;9.23;;;;;;;6.09;100.00;99889.39;4920242;57;1137022;-75
2024/01/22 17:14:50;;;;;;;19.60;9.15;;;;;;;6.10;100.00;99887.14;4906336;58;1136681;-75
2024/01/22 17:19:55;;;;;;;27.70;11.80;;;;;;;6.10;100.00;99888.92;4907079;58;1136947;-78
2024/01/22 17:25:01;;;;;;;36.27;12.57;;;;;;;6.12;100.00;99876.50;4858381;58;1138884;-74
2024/01/22 17:30:08;;;;;;;26.57;9.65;;;;;;;6.16;100.00;99870.94;4913797;57;1138868;-76
2024/01/22 17:35:14;;;;;;;15.13;7.37;;;;;;;6.18;100.00;99893.16;4944870;57;1136555;-79
2024/01/22 17:40:19;;;;;;;20.00;6.77;;;;;;;6.23;100.00;99875.30;4923817;58;1137230;-76
2024/01/22 17:45:25;;;;;;;19.93;7.57;;;;;;;6.25;100.00;99871.63;4875866;58;1136413;-76
2024/01/22 17:50:30;;;;;;;16.57;6.23;;;;;;;6.26;100.00;99889.03;4865352;59;1136421;-77
2024/01/22 17:55:36;;;;;;;14.80;6.00;;;;;;;6.28;100.00;99892.87;4852462;58;1136569;-79
2024/01/22 18:00:43;;;;;;;20.27;7.60;;;;;;;6.22;100.00;99882.81;4927994;57;1136519;-78
2024/01/22 18:05:49;;;;;;;8.13;5.08;;;;;;;6.17;100.00;99888.38;4925332;57;1136565;-78
2024/01/22 18:10:54;;;;;;;15.73;6.30;;;;;;;6.17;100.00;99900.66;4812890;58;1134588;-76
2024/01/22 18:16:02;;;;;;;21.57;7.90;;;;;;;6.21;100.00;99903.45;4943773;58;1136499;-76
2024/01/22 18:21:07;;;;;;;12.73;5.30;;;;;;;6.16;100.00;99899.82;4943523;58;1136644;-76
2024/01/22 18:26:13;;;;;;;31.43;12.03;;;;;;;6.23;100.00;99881.87;4971367;58;1136562;-74
2024/01/22 18:31:18;;;;;;;11.37;5.20;;;;;;;6.27;100.00;99885.94;4957484;58;1138983;-77
2024/01/22 18:36:25;;;;;;;11.40;5.43;;;;;;;6.30;100.00;99881.78;4934089;58;1136855;-76
2024/01/22 18:41:30;;;;;;;10.55;5.72;;;;;;;6.35;100.00;99867.87;4960448;58;1136691;-74
2024/01/22 18:46:37;;;;;;;13.40;4.87;;;;;;;6.29;100.00;99863.03;4956772;57;1136845;-78
2024/01/22 18:51:43;;;;;;;13.60;5.13;;;;;;;6.36;100.00;99864.30;4921553;56;1136434;-74
2024/01/22 18:56:48;;;;;;;13.20;6.20;;;;;;;6.36;100.00;99890.56;4924228;56;1136785;-75
2024/01/22 19:01:54;;;;;;;17.32;6.70;;;;;;;6.30;100.00;99887.88;4948695;56;1136838;-75
2024/01/22 19:06:59;;;;;;;12.43;5.90;;;;;;;6.28;100.00;99892.39;4933573;57;1136978;-75
2024/01/22 19:12:05;;;;;;;13.63;6.30;;;;;;;6.23;100.00;99885.80;4925962;57;1137554;-76
2024/01/22 19:17:11;;;;;;;8.47;4.63;;;;;;;6.18;100.00;99897.93;4947431;57;1136463;-77
2024/01/22 19:22:16;;;;;;;19.03;8.10;;;;;;;6.13;100.00;99904.44;4927611;57;1134798;-76
2024/01/22 19:27:22;;;;;;;14.38;7.12;;;;;;;6.10;100.00;99910.77;4931517;56;1136500;-75
2024/01/22 19:32:28;;;;;;;13.27;5.67;;;;;;;6.05;100.00;99915.48;4952605;56;1136899;-76
2024/01/22 19:37:33;;;;;;;20.47;8.63;;;;;;;6.03;100.00;99912.58;4929985;57;1136806;-77
2024/01/22 19:42:39;;;;;;;16.97;6.70;;;;;;;5.98;100.00;99927.33;4939196;57;1136873;-75
2024/01/22 19:47:45;;;;;;;20.17;9.23;;;;;;;5.93;100.00;99923.72;4831341;58;1136664;-75
2024/01/22 19:52:50;;;;;;;21.65;8.63;;;;;;;5.93;100.00;99942.56;4930434;57;1137115;-76
2024/01/22 19:57:56;;;;;;;19.73;8.93;;;;;;;5.92;100.00;99946.13;4928740;56;1136989;-78
2024/01/22 20:03:01;;;;;;;37.73;13.57;;;;;;;5.90;100.00;99957.20;4945275;56;1136744;-74
2024/01/22 20:08:07;;;;;;;11.33;6.13;;;;;;;5.89;100.00;99944.55;4935425;57;1138812;-77
2024/01/22 20:13:13;;;;;;;16.87;7.60;;;;;;;5.87;100.00;99950.80;4992476;57;1136982;-74
2024/01/22 20:18:18;;;;;;;18.47;8.27;;;;;;;5.86;100.00;99967.02;4938516;57;1139724;-77
2024/01/22 20:23:24;;;;;;;15.97;8.13;;;;;;;5.83;100.00;99973.78;4892116;57;1136477;-76
2024/01/22 20:28:30;;;;;;;12.27;5.80;;;;;;;5.84;100.00;99986.44;4898286;58;1136667;-77
2024/01/22 20:33:36;;;;;;;17.87;7.27;;;;;;;5.80;100.00;99996.78;4914188;57;1136603;-74
2024/01/22 20:38:46;;;;;;;18.73;7.90;;;;;;;5.88;100.00;100011.09;4901290;58;1142996;-75
2024/01/22 20:43:49;;;;;;;14.43;6.50;;;;;;;5.90;100.00;100024.13;4955501;57;1141686;-75
2024/01/22 20:48:54;;;;;;;32.40;12.63;;;;;;;5.90;100.00;100029.38;4934588;58;1138939;-76
2024/01/22 20:54:00;;;;;;;12.97;6.87;;;;;;;5.92;100.00;100061.61;4904221;57;1140863;-75
2024/01/22 20:59:06;;;;;;;10.03;5.13;;;;;;;5.94;100.00;100057.95;4932336;58;1138761;-74
2024/01/22 21:04:12;;;;;;;12.98;6.03;;;;;;;5.97;100.00;100067.37;4962181;58;1138935;-78
2024/01/22 21:09:18;;;;;;;13.60;7.03;;;;;;;6.01;100.00;100074.13;4971086;57;1138741;-77
2024/01/22 21:14:23;;;;;;;9.33;4.80;;;;;;;6.03;100.00;100088.45;4879993;58;1140631;-77
2024/01/22 21:19:29;;;;;;;11.83;5.60;;;;;;;6.02;100.00;100087.62;4879879;58;1138495;-77
2024/01/22 21:24:36;;;;;;;10.30;6.23;;;;;;;6.01;100.00;100087.24;4864303;58;1138563;-77
2024/01/22 21:29:42;;;;;;;14.43;5.40;;;;;;;6.01;100.00;100102.99;4862534;57;1145901;-78
2024/01/22 21:34:47;;;;;;;7.80;4.22;;;;;;;6.00;100.00;100114.43;4937436;57;1138995;-78
2024/01/22 21:39:53;;;;;;;6.33;3.50;;;;;;;6.01;100.00;100120.05;4954389;57;1136853;-78
2024/01/22 21:44:59;;;;;;;8.70;4.07;;;;;;;6.04;100.00;100126.89;4966788;57;1136681;-78
2024/01/22 21:50:05;;;;;;;5.87;3.87;;;;;;;6.04;100.00;100141.33;4910183;57;1136762;-78
2024/01/22 21:55:10;;;;;;;14.90;6.47;;;;;;;6.03;100.00;100140.49;4754398;58;1137011;-78
2024/01/22 22:00:16;;;;;;;6.00;3.47;;;;;;;6.02;100.00;100133.55;4973186;58;1138699;-78
2024/01/22 22:05:22;;;;;;;5.30;3.20;;;;;;;6.00;100.00;100140.21;4952211;57;1136996;-78
2024/01/22 22:10:28;;;;;;;4.37;3.03;;;;;;;5.95;100.00;100158.53;4982143;57;1136686;-78
2024/01/22 22:15:33;;;;;;;8.00;3.33;;;;;;;5.91;100.00;100174.94;5004517;57;1136491;-78
2024/01/22 22:20:39;;;;;;;6.00;2.77;;;;;;;5.90;100.00;100167.16;4975391;56;1136695;-78
2024/01/22 22:25:44;;;;;;;5.20;2.83;;;;;;;5.85;100.00;100183.16;4988885;56;1136582;-78
2024/01/22 22:30:50;;;;;;;6.95;3.02;;;;;;;5.83;100.00;100185.50;4985585;57;1136780;-78
2024/01/22 22:35:55;;;;;;;8.28;3.10;;;;;;;5.78;100.00;100198.94;5008324;57;1136316;-78
2024/01/22 22:41:01;;;;;;;6.13;2.63;;;;;;;5.74;100.00;100197.90;4942326;57;1136816;-78
2024/01/22 22:46:07;;;;;;;11.50;4.37;;;;;;;5.72;100.00;100203.24;4789463;57;1136869;-78
2024/01/22 22:51:13;;;;;;;21.07;5.40;;;;;;;5.71;100.00;100198.93;4967943;57;1138511;-78
2024/01/22 22:56:18;;;;;;;46.83;9.27;;;;;;;5.69;100.00;100211.77;4943721;57;1138702;-78
2024/01/22 23:01:24;;;;;;;11.93;2.83;;;;;;;5.65;100.00;100211.95;4936829;58;1138638;-78